One Hundred Fifty Mile House, Canada
Current Conditions -  °F | °C
As of 4:00 PM on Tuesday 25 Nov 2014 (Local Time) from CYWL Reporting Station
Broken Clouds Broken Clouds  
Wind Chill: 28°   Ceiling: 3500
Heat Index: 28°   Visibility: 12mi
Dew Point: 28°   Wind: 2mph
Humidity: 100%   Direction: 110°ESE
Pressure: 30.15"   Gusts: NA
Location:  52.12°N, 121.93°W
Report Text: CYWL 260000Z 11002KT 12SM FEW010 BKN035 M02/M02 A3015 RMK SF1ST6 SLP252
Loading
Personal Weather Stations






























Interactive Weather Map New forecast layout! Learn more

10-Day Weather Forecast

Advertisements
Track Severe Weather on mobile